sensor_id;sensor_type;location;lat;lon;timestamp;P1;durP1;ratioP1;P2;durP2;ratioP2
13228;SDS011;6680;53.220;10.402;2024-02-23T00:02:09;1.90;;;1.80;;
13228;SDS011;6680;53.220;10.402;2024-02-23T00:04:36;1.80;;;1.70;;
13228;SDS011;6680;53.220;10.402;2024-02-23T00:07:04;2.20;;;2.00;;
13228;SDS011;6680;53.220;10.402;2024-02-23T00:09:31;2.00;;;1.87;;
13228;SDS011;6680;53.220;10.402;2024-02-23T00:11:58;1.67;;;1.57;;
13228;SDS011;6680;53.220;10.402;2024-02-23T00:14:25;1.97;;;1.53;;
13228;SDS011;6680;53.220;10.402;2024-02-23T00:16:51;2.37;;;1.73;;
13228;SDS011;6680;53.220;10.402;2024-02-23T00:19:18;2.00;;;1.90;;
13228;SDS011;6680;53.220;10.402;2024-02-23T00:21:46;1.70;;;1.60;;
13228;SDS011;6680;53.220;10.402;2024-02-23T00:24:16;1.97;;;1.77;;
13228;SDS011;6680;53.220;10.402;2024-02-23T00:26:47;1.83;;;1.73;;
13228;SDS011;6680;53.220;10.402;2024-02-23T00:29:14;1.57;;;1.47;;
13228;SDS011;6680;53.220;10.402;2024-02-23T00:31:41;1.70;;;1.60;;
13228;SDS011;6680;53.220;10.402;2024-02-23T00:34:07;1.57;;;1.47;;
13228;SDS011;6680;53.220;10.402;2024-02-23T00:36:35;1.57;;;1.47;;
13228;SDS011;6680;53.220;10.402;2024-02-23T00:39:03;3.17;;;1.60;;
13228;SDS011;6680;53.220;10.402;2024-02-23T00:41:31;1.83;;;1.73;;
13228;SDS011;6680;53.220;10.402;2024-02-23T00:43:58;2.43;;;1.70;;
13228;SDS011;6680;53.220;10.402;2024-02-23T00:46:24;1.87;;;1.40;;
13228;SDS011;6680;53.220;10.402;2024-02-23T00:48:51;1.70;;;1.60;;
13228;SDS011;6680;53.220;10.402;2024-02-23T00:51:19;1.47;;;1.37;;
13228;SDS011;6680;53.220;10.402;2024-02-23T00:53:46;1.07;;;1.07;;
13228;SDS011;6680;53.220;10.402;2024-02-23T00:56:12;2.43;;;1.83;;
13228;SDS011;6680;53.220;10.402;2024-02-23T00:58:41;1.30;;;1.20;;
13228;SDS011;6680;53.220;10.402;2024-02-23T01:01:08;2.80;;;1.30;;
13228;SDS011;6680;53.220;10.402;2024-02-23T01:03:34;1.80;;;1.50;;
13228;SDS011;6680;53.220;10.402;2024-02-23T01:06:01;4.13;;;1.57;;
13228;SDS011;6680;53.220;10.402;2024-02-23T01:08:28;1.23;;;1.13;;
13228;SDS011;6680;53.220;10.402;2024-02-23T01:10:55;1.67;;;1.57;;
13228;SDS011;6680;53.220;10.402;2024-02-23T01:13:22;2.37;;;1.77;;
13228;SDS011;6680;53.220;10.402;2024-02-23T01:15:50;3.77;;;1.77;;
13228;SDS011;6680;53.220;10.402;2024-02-23T01:18:18;2.10;;;1.90;;
13228;SDS011;6680;53.220;10.402;2024-02-23T01:20:45;2.60;;;1.40;;
13228;SDS011;6680;53.220;10.402;2024-02-23T01:23:12;1.90;;;1.80;;
13228;SDS011;6680;53.220;10.402;2024-02-23T01:25:39;3.70;;;1.97;;
13228;SDS011;6680;53.220;10.402;2024-02-23T01:28:06;2.87;;;1.70;;
13228;SDS011;6680;53.220;10.402;2024-02-23T01:30:32;4.57;;;1.80;;
13228;SDS011;6680;53.220;10.402;2024-02-23T01:33:00;1.33;;;1.33;;
13228;SDS011;6680;53.220;10.402;2024-02-23T01:35:28;1.63;;;1.53;;
13228;SDS011;6680;53.220;10.402;2024-02-23T01:37:55;2.67;;;1.70;;
13228;SDS011;6680;53.220;10.402;2024-02-23T01:40:22;2.93;;;1.60;;
13228;SDS011;6680;53.220;10.402;2024-02-23T01:42:49;2.07;;;1.73;;
13228;SDS011;6680;53.220;10.402;2024-02-23T01:45:25;1.70;;;1.60;;
13228;SDS011;6680;53.220;10.402;2024-02-23T01:47:53;1.67;;;1.57;;
13228;SDS011;6680;53.220;10.402;2024-02-23T01:50:21;1.23;;;1.20;;
13228;SDS011;6680;53.220;10.402;2024-02-23T01:52:48;1.87;;;1.20;;
13228;SDS011;6680;53.220;10.402;2024-02-23T01:55:16;1.83;;;1.10;;
13228;SDS011;6680;53.220;10.402;2024-02-23T01:57:44;1.10;;;1.10;;
13228;SDS011;6680;53.220;10.402;2024-02-23T02:00:13;1.37;;;1.27;;
13228;SDS011;6680;53.220;10.402;2024-02-23T02:02:42;1.90;;;1.07;;
13228;SDS011;6680;53.220;10.402;2024-02-23T02:05:09;1.33;;;1.33;;
13228;SDS011;6680;53.220;10.402;2024-02-23T02:07:38;1.10;;;1.10;;
13228;SDS011;6680;53.220;10.402;2024-02-23T02:10:07;0.97;;;0.90;;
13228;SDS011;6680;53.220;10.402;2024-02-23T02:12:35;1.50;;;1.50;;
13228;SDS011;6680;53.220;10.402;2024-02-23T02:15:02;1.00;;;1.00;;
13228;SDS011;6680;53.220;10.402;2024-02-23T02:17:30;1.40;;;1.30;;
13228;SDS011;6680;53.220;10.402;2024-02-23T02:19:57;1.10;;;1.10;;
13228;SDS011;6680;53.220;10.402;2024-02-23T02:22:25;1.10;;;1.00;;
13228;SDS011;6680;53.220;10.402;2024-02-23T02:24:53;1.10;;;1.10;;
13228;SDS011;6680;53.220;10.402;2024-02-23T02:27:20;1.07;;;1.07;;
13228;SDS011;6680;53.220;10.402;2024-02-23T02:29:49;1.03;;;1.03;;
13228;SDS011;6680;53.220;10.402;2024-02-23T02:32:16;1.03;;;1.03;;
13228;SDS011;6680;53.220;10.402;2024-02-23T02:34:43;1.23;;;1.23;;
13228;SDS011;6680;53.220;10.402;2024-02-23T02:37:10;1.10;;;1.10;;
13228;SDS011;6680;53.220;10.402;2024-02-23T02:39:37;1.20;;;1.20;;
13228;SDS011;6680;53.220;10.402;2024-02-23T02:42:05;1.10;;;1.10;;
13228;SDS011;6680;53.220;10.402;2024-02-23T02:44:33;1.10;;;1.10;;
13228;SDS011;6680;53.220;10.402;2024-02-23T02:47:00;1.63;;;1.10;;
13228;SDS011;6680;53.220;10.402;2024-02-23T02:49:27;1.33;;;1.30;;
13228;SDS011;6680;53.220;10.402;2024-02-23T02:51:53;1.27;;;1.27;;
13228;SDS011;6680;53.220;10.402;2024-02-23T02:54:20;1.63;;;1.50;;
13228;SDS011;6680;53.220;10.402;2024-02-23T02:56:47;2.93;;;1.30;;
13228;SDS011;6680;53.220;10.402;2024-02-23T02:59:17;1.00;;;1.00;;
13228;SDS011;6680;53.220;10.402;2024-02-23T03:01:44;0.80;;;0.80;;
13228;SDS011;6680;53.220;10.402;2024-02-23T03:04:12;1.33;;;1.23;;
13228;SDS011;6680;53.220;10.402;2024-02-23T03:06:39;0.90;;;0.90;;
13228;SDS011;6680;53.220;10.402;2024-02-23T03:09:05;1.30;;;1.30;;
13228;SDS011;6680;53.220;10.402;2024-02-23T03:11:32;1.00;;;1.00;;
13228;SDS011;6680;53.220;10.402;2024-02-23T03:13:59;1.10;;;1.10;;
13228;SDS011;6680;53.220;10.402;2024-02-23T03:16:27;0.97;;;0.97;;
13228;SDS011;6680;53.220;10.402;2024-02-23T03:18:56;1.10;;;1.10;;
13228;SDS011;6680;53.220;10.402;2024-02-23T03:21:23;1.57;;;1.07;;
13228;SDS011;6680;53.220;10.402;2024-02-23T03:23:50;1.00;;;1.00;;
13228;SDS011;6680;53.220;10.402;2024-02-23T03:26:16;1.27;;;1.03;;
13228;SDS011;6680;53.220;10.402;2024-02-23T03:28:43;1.03;;;1.00;;
13228;SDS011;6680;53.220;10.402;2024-02-23T03:31:09;0.87;;;0.87;;
13228;SDS011;6680;53.220;10.402;2024-02-23T03:33:37;1.40;;;1.30;;
13228;SDS011;6680;53.220;10.402;2024-02-23T03:36:04;1.20;;;1.10;;
13228;SDS011;6680;53.220;10.402;2024-02-23T03:38:31;1.30;;;1.20;;
13228;SDS011;6680;53.220;10.402;2024-02-23T03:40:59;0.90;;;0.90;;
13228;SDS011;6680;53.220;10.402;2024-02-23T03:43:26;0.90;;;0.90;;
13228;SDS011;6680;53.220;10.402;2024-02-23T03:45:53;1.07;;;1.00;;
13228;SDS011;6680;53.220;10.402;2024-02-23T03:48:20;1.10;;;1.10;;
13228;SDS011;6680;53.220;10.402;2024-02-23T03:50:48;1.43;;;1.43;;
13228;SDS011;6680;53.220;10.402;2024-02-23T03:53:14;1.00;;;1.00;;
13228;SDS011;6680;53.220;10.402;2024-02-23T03:55:41;1.10;;;1.10;;
13228;SDS011;6680;53.220;10.402;2024-02-23T03:58:08;1.07;;;1.07;;
13228;SDS011;6680;53.220;10.402;2024-02-23T04:00:35;0.70;;;0.70;;
13228;SDS011;6680;53.220;10.402;2024-02-23T04:03:02;1.40;;;1.30;;
13228;SDS011;6680;53.220;10.402;2024-02-23T04:05:29;0.97;;;0.97;;
13228;SDS011;6680;53.220;10.402;2024-02-23T04:07:57;1.40;;;0.93;;
13228;SDS011;6680;53.220;10.402;2024-02-23T04:10:24;0.80;;;0.80;;
13228;SDS011;6680;53.220;10.402;2024-02-23T04:12:51;1.30;;;1.30;;
13228;SDS011;6680;53.220;10.402;2024-02-23T04:15:17;0.90;;;0.90;;
13228;SDS011;6680;53.220;10.402;2024-02-23T04:17:44;1.20;;;1.20;;
13228;SDS011;6680;53.220;10.402;2024-02-23T04:20:12;1.47;;;1.37;;
13228;SDS011;6680;53.220;10.402;2024-02-23T04:22:39;1.30;;;1.20;;
13228;SDS011;6680;53.220;10.402;2024-02-23T04:25:07;1.20;;;1.20;;
13228;SDS011;6680;53.220;10.402;2024-02-23T04:27:34;1.40;;;1.40;;
13228;SDS011;6680;53.220;10.402;2024-02-23T04:30:01;1.40;;;1.40;;
13228;SDS011;6680;53.220;10.402;2024-02-23T04:32:28;1.60;;;1.50;;
13228;SDS011;6680;53.220;10.402;2024-02-23T04:34:55;1.87;;;1.37;;
13228;SDS011;6680;53.220;10.402;2024-02-23T04:37:22;1.30;;;1.30;;
13228;SDS011;6680;53.220;10.402;2024-02-23T04:39:49;2.50;;;1.70;;
13228;SDS011;6680;53.220;10.402;2024-02-23T04:42:17;1.70;;;1.60;;
13228;SDS011;6680;53.220;10.402;2024-02-23T04:44:44;1.70;;;1.60;;
13228;SDS011;6680;53.220;10.402;2024-02-23T04:47:11;1.40;;;1.33;;
13228;SDS011;6680;53.220;10.402;2024-02-23T04:49:37;1.70;;;1.60;;
13228;SDS011;6680;53.220;10.402;2024-02-23T04:52:05;2.03;;;1.60;;
13228;SDS011;6680;53.220;10.402;2024-02-23T04:54:32;1.90;;;1.80;;
13228;SDS011;6680;53.220;10.402;2024-02-23T04:56:59;2.50;;;1.73;;
13228;SDS011;6680;53.220;10.402;2024-02-23T04:59:27;4.40;;;1.97;;
13228;SDS011;6680;53.220;10.402;2024-02-23T05:01:56;2.07;;;1.83;;
13228;SDS011;6680;53.220;10.402;2024-02-23T05:04:23;1.90;;;1.80;;
13228;SDS011;6680;53.220;10.402;2024-02-23T05:06:51;3.37;;;1.40;;
13228;SDS011;6680;53.220;10.402;2024-02-23T05:09:18;2.00;;;1.80;;
13228;SDS011;6680;53.220;10.402;2024-02-23T05:11:45;4.93;;;2.10;;
13228;SDS011;6680;53.220;10.402;2024-02-23T05:14:12;1.63;;;1.53;;
13228;SDS011;6680;53.220;10.402;2024-02-23T05:16:41;2.57;;;2.10;;
13228;SDS011;6680;53.220;10.402;2024-02-23T05:19:07;3.57;;;1.90;;
13228;SDS011;6680;53.220;10.402;2024-02-23T05:21:34;1.83;;;1.73;;
13228;SDS011;6680;53.220;10.402;2024-02-23T05:24:01;2.53;;;2.00;;
13228;SDS011;6680;53.220;10.402;2024-02-23T05:26:28;1.50;;;1.40;;
13228;SDS011;6680;53.220;10.402;2024-02-23T05:28:55;3.07;;;2.23;;
13228;SDS011;6680;53.220;10.402;2024-02-23T05:31:22;2.27;;;1.83;;
13228;SDS011;6680;53.220;10.402;2024-02-23T05:34:12;2.43;;;2.10;;
13228;SDS011;6680;53.220;10.402;2024-02-23T05:36:39;2.10;;;1.90;;
13228;SDS011;6680;53.220;10.402;2024-02-23T05:39:05;1.73;;;1.60;;
13228;SDS011;6680;53.220;10.402;2024-02-23T05:41:32;3.10;;;1.87;;
13228;SDS011;6680;53.220;10.402;2024-02-23T05:43:59;2.47;;;1.93;;
13228;SDS011;6680;53.220;10.402;2024-02-23T05:46:29;3.27;;;2.13;;
13228;SDS011;6680;53.220;10.402;2024-02-23T05:48:57;2.00;;;1.90;;
13228;SDS011;6680;53.220;10.402;2024-02-23T05:51:23;3.60;;;2.13;;
13228;SDS011;6680;53.220;10.402;2024-02-23T05:53:50;6.67;;;2.23;;
13228;SDS011;6680;53.220;10.402;2024-02-23T05:56:17;1.73;;;1.63;;
13228;SDS011;6680;53.220;10.402;2024-02-23T05:58:44;2.10;;;1.90;;
13228;SDS011;6680;53.220;10.402;2024-02-23T06:01:11;3.30;;;1.80;;
13228;SDS011;6680;53.220;10.402;2024-02-23T06:03:38;2.23;;;1.80;;
13228;SDS011;6680;53.220;10.402;2024-02-23T06:06:08;2.67;;;2.47;;
13228;SDS011;6680;53.220;10.402;2024-02-23T06:08:35;2.67;;;1.90;;
13228;SDS011;6680;53.220;10.402;2024-02-23T06:11:02;2.10;;;1.90;;
13228;SDS011;6680;53.220;10.402;2024-02-23T06:13:29;2.17;;;1.83;;
13228;SDS011;6680;53.220;10.402;2024-02-23T06:15:57;2.43;;;2.10;;
13228;SDS011;6680;53.220;10.402;2024-02-23T06:18:23;6.10;;;2.40;;
13228;SDS011;6680;53.220;10.402;2024-02-23T06:20:50;3.53;;;2.00;;
13228;SDS011;6680;53.220;10.402;2024-02-23T06:23:18;2.17;;;1.97;;
13228;SDS011;6680;53.220;10.402;2024-02-23T06:25:47;2.50;;;2.03;;
13228;SDS011;6680;53.220;10.402;2024-02-23T06:28:13;2.33;;;2.13;;
13228;SDS011;6680;53.220;10.402;2024-02-23T06:30:40;3.03;;;2.00;;
13228;SDS011;6680;53.220;10.402;2024-02-23T06:33:07;2.17;;;1.90;;
13228;SDS011;6680;53.220;10.402;2024-02-23T06:35:34;2.50;;;2.13;;
13228;SDS011;6680;53.220;10.402;2024-02-23T06:38:01;3.00;;;1.77;;
13228;SDS011;6680;53.220;10.402;2024-02-23T06:40:29;3.37;;;2.20;;
13228;SDS011;6680;53.220;10.402;2024-02-23T06:42:56;3.90;;;1.97;;
13228;SDS011;6680;53.220;10.402;2024-02-23T06:45:23;2.13;;;1.93;;
13228;SDS011;6680;53.220;10.402;2024-02-23T06:47:51;3.70;;;2.13;;
13228;SDS011;6680;53.220;10.402;2024-02-23T06:50:18;2.40;;;1.90;;
13228;SDS011;6680;53.220;10.402;2024-02-23T06:52:44;2.67;;;1.80;;
13228;SDS011;6680;53.220;10.402;2024-02-23T06:55:13;3.17;;;2.03;;
13228;SDS011;6680;53.220;10.402;2024-02-23T06:57:41;3.63;;;2.03;;
13228;SDS011;6680;53.220;10.402;2024-02-23T07:00:08;3.37;;;1.83;;
13228;SDS011;6680;53.220;10.402;2024-02-23T07:02:36;3.10;;;2.20;;
13228;SDS011;6680;53.220;10.402;2024-02-23T07:05:03;6.53;;;2.10;;
13228;SDS011;6680;53.220;10.402;2024-02-23T07:07:31;2.90;;;1.90;;
13228;SDS011;6680;53.220;10.402;2024-02-23T07:09:58;2.03;;;1.90;;
13228;SDS011;6680;53.220;10.402;2024-02-23T07:12:26;2.30;;;2.10;;
13228;SDS011;6680;53.220;10.402;2024-02-23T07:14:55;4.07;;;2.20;;
13228;SDS011;6680;53.220;10.402;2024-02-23T07:17:22;2.40;;;2.20;;
13228;SDS011;6680;53.220;10.402;2024-02-23T07:19:49;2.67;;;2.10;;
13228;SDS011;6680;53.220;10.402;2024-02-23T07:22:17;2.33;;;2.10;;
13228;SDS011;6680;53.220;10.402;2024-02-23T07:24:45;2.23;;;2.03;;
13228;SDS011;6680;53.220;10.402;2024-02-23T07:27:12;1.93;;;1.80;;
13228;SDS011;6680;53.220;10.402;2024-02-23T07:29:39;3.83;;;2.27;;
13228;SDS011;6680;53.220;10.402;2024-02-23T07:32:07;1.60;;;1.50;;
13228;SDS011;6680;53.220;10.402;2024-02-23T07:34:34;2.63;;;2.43;;
13228;SDS011;6680;53.220;10.402;2024-02-23T07:37:01;2.47;;;2.23;;
13228;SDS011;6680;53.220;10.402;2024-02-23T07:39:29;6.40;;;2.33;;
13228;SDS011;6680;53.220;10.402;2024-02-23T07:41:55;5.23;;;1.90;;
13228;SDS011;6680;53.220;10.402;2024-02-23T07:44:22;2.57;;;2.00;;
13228;SDS011;6680;53.220;10.402;2024-02-23T07:46:50;3.53;;;1.80;;
13228;SDS011;6680;53.220;10.402;2024-02-23T07:49:18;2.60;;;2.10;;
13228;SDS011;6680;53.220;10.402;2024-02-23T07:51:45;3.77;;;2.20;;
13228;SDS011;6680;53.220;10.402;2024-02-23T07:54:12;2.30;;;2.10;;
13228;SDS011;6680;53.220;10.402;2024-02-23T07:56:39;4.73;;;1.83;;
13228;SDS011;6680;53.220;10.402;2024-02-23T07:59:05;4.40;;;2.03;;
13228;SDS011;6680;53.220;10.402;2024-02-23T08:01:31;2.87;;;1.83;;
13228;SDS011;6680;53.220;10.402;2024-02-23T08:03:59;1.97;;;1.87;;
13228;SDS011;6680;53.220;10.402;2024-02-23T08:06:27;2.13;;;1.93;;
13228;SDS011;6680;53.220;10.402;2024-02-23T08:08:54;3.10;;;2.17;;
13228;SDS011;6680;53.220;10.402;2024-02-23T08:11:24;2.90;;;1.87;;
13228;SDS011;6680;53.220;10.402;2024-02-23T08:13:50;2.63;;;2.00;;
13228;SDS011;6680;53.220;10.402;2024-02-23T08:16:17;3.20;;;2.33;;
13228;SDS011;6680;53.220;10.402;2024-02-23T08:18:44;2.10;;;1.93;;
13228;SDS011;6680;53.220;10.402;2024-02-23T08:21:11;2.80;;;1.80;;
13228;SDS011;6680;53.220;10.402;2024-02-23T08:23:39;1.60;;;1.50;;
13228;SDS011;6680;53.220;10.402;2024-02-23T08:26:06;2.63;;;2.17;;
13228;SDS011;6680;53.220;10.402;2024-02-23T08:28:32;1.77;;;1.67;;
13228;SDS011;6680;53.220;10.402;2024-02-23T08:30:59;2.23;;;2.03;;
13228;SDS011;6680;53.220;10.402;2024-02-23T08:33:26;5.80;;;2.50;;
13228;SDS011;6680;53.220;10.402;2024-02-23T08:35:53;5.37;;;1.90;;
13228;SDS011;6680;53.220;10.402;2024-02-23T08:38:20;3.37;;;2.03;;
13228;SDS011;6680;53.220;10.402;2024-02-23T08:40:48;5.87;;;2.27;;
13228;SDS011;6680;53.220;10.402;2024-02-23T08:43:15;3.37;;;2.40;;
13228;SDS011;6680;53.220;10.402;2024-02-23T08:45:42;5.03;;;2.10;;
13228;SDS011;6680;53.220;10.402;2024-02-23T08:48:09;3.13;;;1.90;;
13228;SDS011;6680;53.220;10.402;2024-02-23T08:50:39;1.60;;;1.50;;
13228;SDS011;6680;53.220;10.402;2024-02-23T08:53:06;3.77;;;1.93;;
13228;SDS011;6680;53.220;10.402;2024-02-23T08:55:33;2.77;;;1.47;;
13228;SDS011;6680;53.220;10.402;2024-02-23T08:58:01;3.97;;;2.13;;
13228;SDS011;6680;53.220;10.402;2024-02-23T09:00:28;5.47;;;1.77;;
13228;SDS011;6680;53.220;10.402;2024-02-23T09:02:55;4.83;;;2.03;;
13228;SDS011;6680;53.220;10.402;2024-02-23T09:05:21;2.40;;;1.67;;
13228;SDS011;6680;53.220;10.402;2024-02-23T09:07:48;3.30;;;2.10;;
13228;SDS011;6680;53.220;10.402;2024-02-23T09:10:15;2.20;;;2.03;;
13228;SDS011;6680;53.220;10.402;2024-02-23T09:12:43;2.50;;;1.70;;
13228;SDS011;6680;53.220;10.402;2024-02-23T09:15:11;2.10;;;2.00;;
13228;SDS011;6680;53.220;10.402;2024-02-23T09:17:39;3.47;;;1.93;;
13228;SDS011;6680;53.220;10.402;2024-02-23T09:20:06;3.93;;;1.63;;
13228;SDS011;6680;53.220;10.402;2024-02-23T09:22:34;2.13;;;1.73;;
13228;SDS011;6680;53.220;10.402;2024-02-23T09:25:01;1.80;;;1.70;;
13228;SDS011;6680;53.220;10.402;2024-02-23T09:27:30;3.90;;;2.10;;
13228;SDS011;6680;53.220;10.402;2024-02-23T09:29:57;2.57;;;1.87;;
13228;SDS011;6680;53.220;10.402;2024-02-23T09:32:25;3.20;;;1.80;;
13228;SDS011;6680;53.220;10.402;2024-02-23T09:34:52;2.93;;;1.70;;
13228;SDS011;6680;53.220;10.402;2024-02-23T09:37:19;3.67;;;2.00;;
13228;SDS011;6680;53.220;10.402;2024-02-23T09:39:45;2.47;;;1.60;;
13228;SDS011;6680;53.220;10.402;2024-02-23T09:42:12;2.33;;;2.00;;
13228;SDS011;6680;53.220;10.402;2024-02-23T09:44:39;1.73;;;1.60;;
13228;SDS011;6680;53.220;10.402;2024-02-23T09:47:10;5.27;;;1.80;;
13228;SDS011;6680;53.220;10.402;2024-02-23T09:49:40;1.77;;;1.67;;
13228;SDS011;6680;53.220;10.402;2024-02-23T09:52:08;1.93;;;1.83;;
13228;SDS011;6680;53.220;10.402;2024-02-23T09:54:36;4.83;;;2.30;;
13228;SDS011;6680;53.220;10.402;2024-02-23T09:57:03;7.30;;;2.40;;
13228;SDS011;6680;53.220;10.402;2024-02-23T09:59:32;2.10;;;2.00;;
13228;SDS011;6680;53.220;10.402;2024-02-23T10:02:00;1.87;;;1.77;;
13228;SDS011;6680;53.220;10.402;2024-02-23T10:04:28;2.67;;;2.10;;
13228;SDS011;6680;53.220;10.402;2024-02-23T10:06:57;3.03;;;2.23;;
13228;SDS011;6680;53.220;10.402;2024-02-23T10:09:24;2.40;;;1.60;;
13228;SDS011;6680;53.220;10.402;2024-02-23T10:11:51;4.00;;;1.63;;
13228;SDS011;6680;53.220;10.402;2024-02-23T10:14:19;2.67;;;1.53;;
13228;SDS011;6680;53.220;10.402;2024-02-23T10:16:46;1.80;;;1.70;;
13228;SDS011;6680;53.220;10.402;2024-02-23T10:19:13;2.33;;;1.50;;
13228;SDS011;6680;53.220;10.402;2024-02-23T10:21:40;1.70;;;1.37;;
13228;SDS011;6680;53.220;10.402;2024-02-23T10:24:08;2.10;;;1.90;;
13228;SDS011;6680;53.220;10.402;2024-02-23T10:26:36;3.37;;;1.70;;
13228;SDS011;6680;53.220;10.402;2024-02-23T10:29:03;3.80;;;1.60;;
13228;SDS011;6680;53.220;10.402;2024-02-23T10:31:30;5.57;;;1.83;;
13228;SDS011;6680;53.220;10.402;2024-02-23T10:34:00;2.17;;;1.70;;
13228;SDS011;6680;53.220;10.402;2024-02-23T10:36:34;1.43;;;1.40;;
13228;SDS011;6680;53.220;10.402;2024-02-23T10:39:04;2.37;;;1.70;;
13228;SDS011;6680;53.220;10.402;2024-02-23T10:41:35;2.90;;;1.80;;
13228;SDS011;6680;53.220;10.402;2024-02-23T10:44:03;6.40;;;1.77;;
13228;SDS011;6680;53.220;10.402;2024-02-23T10:46:31;2.60;;;1.27;;
13228;SDS011;6680;53.220;10.402;2024-02-23T10:49:03;3.00;;;1.80;;
13228;SDS011;6680;53.220;10.402;2024-02-23T10:51:50;2.00;;;1.50;;
13228;SDS011;6680;53.220;10.402;2024-02-23T10:54:17;1.83;;;1.37;;
13228;SDS011;6680;53.220;10.402;2024-02-23T10:56:49;2.80;;;1.57;;
13228;SDS011;6680;53.220;10.402;2024-02-23T10:59:17;2.83;;;1.37;;
13228;SDS011;6680;53.220;10.402;2024-02-23T11:01:44;4.47;;;1.90;;
13228;SDS011;6680;53.220;10.402;2024-02-23T11:04:14;2.37;;;2.10;;
13228;SDS011;6680;53.220;10.402;2024-02-23T11:06:42;3.93;;;1.70;;
13228;SDS011;6680;53.220;10.402;2024-02-23T11:09:11;5.90;;;1.90;;
13228;SDS011;6680;53.220;10.402;2024-02-23T11:11:39;1.70;;;1.60;;
13228;SDS011;6680;53.220;10.402;2024-02-23T11:14:08;1.90;;;1.10;;
13228;SDS011;6680;53.220;10.402;2024-02-23T11:16:38;4.80;;;1.70;;
13228;SDS011;6680;53.220;10.402;2024-02-23T11:19:06;7.37;;;2.03;;
13228;SDS011;6680;53.220;10.402;2024-02-23T11:21:34;2.30;;;1.40;;
13228;SDS011;6680;53.220;10.402;2024-02-23T11:24:03;2.77;;;1.83;;
13228;SDS011;6680;53.220;10.402;2024-02-23T11:26:30;2.30;;;1.67;;
13228;SDS011;6680;53.220;10.402;2024-02-23T11:28:58;2.27;;;1.40;;
13228;SDS011;6680;53.220;10.402;2024-02-23T11:31:29;2.70;;;1.43;;
13228;SDS011;6680;53.220;10.402;2024-02-23T11:33:56;3.97;;;1.50;;
13228;SDS011;6680;53.220;10.402;2024-02-23T11:36:24;2.57;;;1.40;;
13228;SDS011;6680;53.220;10.402;2024-02-23T11:38:53;1.60;;;1.50;;
13228;SDS011;6680;53.220;10.402;2024-02-23T11:41:22;2.10;;;1.90;;
13228;SDS011;6680;53.220;10.402;2024-02-23T11:43:49;2.07;;;1.27;;
13228;SDS011;6680;53.220;10.402;2024-02-23T11:46:17;5.07;;;1.60;;
13228;SDS011;6680;53.220;10.402;2024-02-23T11:48:45;2.80;;;1.23;;
13228;SDS011;6680;53.220;10.402;2024-02-23T11:51:18;1.30;;;1.20;;
13228;SDS011;6680;53.220;10.402;2024-02-23T11:53:45;1.80;;;1.43;;
13228;SDS011;6680;53.220;10.402;2024-02-23T11:56:13;1.70;;;1.57;;
13228;SDS011;6680;53.220;10.402;2024-02-23T11:58:40;1.00;;;1.00;;
13228;SDS011;6680;53.220;10.402;2024-02-23T12:01:07;3.37;;;1.40;;
13228;SDS011;6680;53.220;10.402;2024-02-23T12:03:34;2.13;;;1.57;;
13228;SDS011;6680;53.220;10.402;2024-02-23T12:06:02;2.53;;;1.83;;
13228;SDS011;6680;53.220;10.402;2024-02-23T12:08:30;1.67;;;1.57;;
13228;SDS011;6680;53.220;10.402;2024-02-23T12:11:03;1.57;;;1.47;;
13228;SDS011;6680;53.220;10.402;2024-02-23T12:13:30;2.00;;;1.53;;
13228;SDS011;6680;53.220;10.402;2024-02-23T12:15:57;2.07;;;1.50;;
13228;SDS011;6680;53.220;10.402;2024-02-23T12:18:24;3.70;;;2.00;;
13228;SDS011;6680;53.220;10.402;2024-02-23T12:20:51;3.93;;;2.37;;
13228;SDS011;6680;53.220;10.402;2024-02-23T12:23:19;1.90;;;1.70;;
13228;SDS011;6680;53.220;10.402;2024-02-23T12:25:52;1.60;;;1.50;;
13228;SDS011;6680;53.220;10.402;2024-02-23T12:28:20;2.20;;;1.10;;
13228;SDS011;6680;53.220;10.402;2024-02-23T12:30:46;2.37;;;1.60;;
13228;SDS011;6680;53.220;10.402;2024-02-23T12:33:26;1.57;;;1.40;;
13228;SDS011;6680;53.220;10.402;2024-02-23T12:35:54;3.93;;;1.33;;
13228;SDS011;6680;53.220;10.402;2024-02-23T12:38:22;1.27;;;1.20;;
13228;SDS011;6680;53.220;10.402;2024-02-23T12:40:49;1.47;;;1.30;;
13228;SDS011;6680;53.220;10.402;2024-02-23T12:43:17;2.13;;;1.30;;
13228;SDS011;6680;53.220;10.402;2024-02-23T12:45:46;2.73;;;1.40;;
13228;SDS011;6680;53.220;10.402;2024-02-23T12:48:15;3.87;;;1.47;;
13228;SDS011;6680;53.220;10.402;2024-02-23T12:50:42;1.57;;;1.27;;
13228;SDS011;6680;53.220;10.402;2024-02-23T12:53:09;1.40;;;1.30;;
13228;SDS011;6680;53.220;10.402;2024-02-23T12:55:57;1.47;;;1.37;;
13228;SDS011;6680;53.220;10.402;2024-02-23T12:58:24;1.20;;;1.20;;
13228;SDS011;6680;53.220;10.402;2024-02-23T13:00:51;1.27;;;1.17;;
13228;SDS011;6680;53.220;10.402;2024-02-23T13:03:18;1.20;;;1.10;;
13228;SDS011;6680;53.220;10.402;2024-02-23T13:05:45;3.20;;;1.30;;
13228;SDS011;6680;53.220;10.402;2024-02-23T13:08:12;1.17;;;1.10;;
13228;SDS011;6680;53.220;10.402;2024-02-23T13:10:38;4.97;;;1.33;;
13228;SDS011;6680;53.220;10.402;2024-02-23T13:13:07;1.13;;;1.13;;
13228;SDS011;6680;53.220;10.402;2024-02-23T13:15:33;1.60;;;1.50;;
13228;SDS011;6680;53.220;10.402;2024-02-23T13:18:01;1.57;;;1.47;;
13228;SDS011;6680;53.220;10.402;2024-02-23T13:20:28;2.57;;;1.57;;
13228;SDS011;6680;53.220;10.402;2024-02-23T13:22:55;2.50;;;1.63;;
13228;SDS011;6680;53.220;10.402;2024-02-23T13:25:22;1.30;;;1.20;;
13228;SDS011;6680;53.220;10.402;2024-02-23T13:27:49;1.40;;;1.40;;
13228;SDS011;6680;53.220;10.402;2024-02-23T13:30:17;1.70;;;1.60;;
13228;SDS011;6680;53.220;10.402;2024-02-23T13:32:44;1.83;;;1.40;;
13228;SDS011;6680;53.220;10.402;2024-02-23T13:35:11;1.70;;;1.60;;
13228;SDS011;6680;53.220;10.402;2024-02-23T13:37:39;1.43;;;1.33;;
13228;SDS011;6680;53.220;10.402;2024-02-23T13:40:06;1.30;;;1.20;;
13228;SDS011;6680;53.220;10.402;2024-02-23T13:42:34;1.23;;;1.13;;
13228;SDS011;6680;53.220;10.402;2024-02-23T13:45:03;1.20;;;1.20;;
13228;SDS011;6680;53.220;10.402;2024-02-23T13:47:33;1.77;;;1.67;;
13228;SDS011;6680;53.220;10.402;2024-02-23T13:50:00;1.43;;;1.33;;
13228;SDS011;6680;53.220;10.402;2024-02-23T13:52:26;2.30;;;1.70;;
13228;SDS011;6680;53.220;10.402;2024-02-23T13:54:53;1.40;;;1.30;;
13228;SDS011;6680;53.220;10.402;2024-02-23T13:57:20;2.57;;;1.80;;
13228;SDS011;6680;53.220;10.402;2024-02-23T13:59:47;2.70;;;1.50;;
13228;SDS011;6680;53.220;10.402;2024-02-23T14:02:14;1.67;;;1.57;;
13228;SDS011;6680;53.220;10.402;2024-02-23T14:04:42;3.90;;;1.20;;
13228;SDS011;6680;53.220;10.402;2024-02-23T14:07:10;1.10;;;1.10;;
13228;SDS011;6680;53.220;10.402;2024-02-23T14:09:37;1.90;;;1.50;;
13228;SDS011;6680;53.220;10.402;2024-02-23T14:12:04;3.23;;;1.53;;
13228;SDS011;6680;53.220;10.402;2024-02-23T14:14:31;1.47;;;1.37;;
13228;SDS011;6680;53.220;10.402;2024-02-23T14:16:57;3.87;;;1.67;;
13228;SDS011;6680;53.220;10.402;2024-02-23T14:19:25;2.60;;;1.30;;
13228;SDS011;6680;53.220;10.402;2024-02-23T14:21:53;1.43;;;1.33;;
13228;SDS011;6680;53.220;10.402;2024-02-23T14:24:20;2.07;;;1.57;;
13228;SDS011;6680;53.220;10.402;2024-02-23T14:26:46;1.30;;;1.20;;
13228;SDS011;6680;53.220;10.402;2024-02-23T14:29:13;1.47;;;1.37;;
13228;SDS011;6680;53.220;10.402;2024-02-23T14:31:42;2.50;;;1.50;;
13228;SDS011;6680;53.220;10.402;2024-02-23T14:34:09;4.23;;;1.50;;
13228;SDS011;6680;53.220;10.402;2024-02-23T14:36:36;2.27;;;1.50;;
13228;SDS011;6680;53.220;10.402;2024-02-23T14:39:04;1.67;;;1.43;;
13228;SDS011;6680;53.220;10.402;2024-02-23T14:41:31;3.17;;;1.40;;
13228;SDS011;6680;53.220;10.402;2024-02-23T14:43:58;3.57;;;1.70;;
13228;SDS011;6680;53.220;10.402;2024-02-23T14:46:25;2.33;;;1.43;;
13228;SDS011;6680;53.220;10.402;2024-02-23T14:48:51;1.60;;;1.50;;
13228;SDS011;6680;53.220;10.402;2024-02-23T14:51:19;1.93;;;1.47;;